Home > Products > Valid Products > TAF

000
FTUS41 KLWX 240836 AAA
TAFDCA
TAF AMD
KDCA 240836Z 2409/2506 21005KT P6SM FEW080
     FM241800 19009KT P6SM SCT060=



000
FTUS41 KLWX 240836 AAA
TAFIAD
TAF AMD
KIAD 240836Z 2409/2512 VRB05KT P6SM FEW080
     FM241400 21007KT P6SM SCT060
     FM250200 18006KT P6SM SCT200=



000
FTUS41 KLWX 240836 AAA
TAFBWI
TAF AMD
KBWI 240836Z 2409/2512 VRB04KT P6SM FEW250
     FM241400 21007KT P6SM SCT060
     FM242200 15005KT P6SM SCT200=



000
FTUS41 KLWX 240536
TAFDCA
TAF
KDCA 240536Z 2406/2506 20006KT P6SM FEW080
     FM241800 19009KT P6SM SCT060=



000
FTUS41 KLWX 240536
TAFIAD
TAF
KIAD 240536Z 2406/2512 VRB03KT P6SM FEW080
     FM241400 21007KT P6SM SCT060
     FM250200 17005KT P6SM SCT200=



000
FTUS41 KLWX 240536
TAFMTN
TAF
KMTN 240536Z 2406/2506 NIL=



000
FTUS41 KLWX 240536
TAFCHO
TAF
KCHO 240536Z 2406/2506 VRB04KT P6SM FEW080
     FM241500 21008KT P6SM FEW060=



000
FTUS41 KLWX 240536
TAFBWI
TAF
KBWI 240536Z 2406/2512 VRB04KT P6SM FEW250
     FM241400 21007KT P6SM SCT060
     FM242200 15005KT P6SM SCT200=



000
FTUS41 KLWX 240536
TAFMRB
TAF
KMRB 240536Z 2406/2506 VRB04KT P6SM FEW250
     FM241900 17006KT P6SM SCT060=



000
FTUS41 KLWX 240536
TAFIAD
TAF
KIAD 240536Z 2406/2512 VRB03KT P6SM FEW080
     FM241400 21007KT P6SM SCT060
     FM250200 17005KT P6SM SCT200=



000
FTUS41 KLWX 232331
TAFMRB
TAF
KMRB 232331Z 2400/2424 VRB03KT P6SM SKC
     FM241400 19005KT P6SM SCT200
     FM242300 VRB03KT P6SM BKN090=



000
FTUS41 KLWX 232331
TAFDCA
TAF
KDCA 232331Z 2400/2424 17005KT P6SM FEW200
     FM241400 21007KT P6SM FEW060 SCT200
     FM242200 19005KT P6SM BKN090=



000
FTUS41 KLWX 232331
TAFBWI
TAF
KBWI 232331Z 2400/2506 VRB03KT P6SM FEW200
     FM241400 20007KT P6SM FEW060 SCT200
     FM242300 17005KT P6SM BKN070
     FM250300 17006KT P6SM SCT070=



000
FTUS41 KLWX 232331
TAFIAD
TAF
KIAD 232331Z 2400/2506 21004KT P6SM SKC
     FM240400 00000KT P6SM FEW250
     FM241400 19005KT P6SM FEW060 SCT250
     FM242300 17005KT P6SM BKN080=



000
FTUS41 KLWX 232331
TAFCHO
TAF
KCHO 232331Z 2400/2424 VRB03KT P6SM FEW070
     FM241400 21007KT P6SM FEW060 SCT200=



000
FTUS41 KLWX 232331
TAFMTN
TAF
KMTN 232331Z 2400/2424 18004KT P6SM SKC
     FM240600 00000KT P6SM FEW200
     FM241400 20009KT P6SM SCT200
      AMD NOT SKED 2402/2412=



000
FTUS41 KLWX 232055 AAA
TAFDCA
TAF AMD
KDCA 232055Z 2321/2418 VRB04KT P6SM FEW250
     FM241700 21007KT P6SM SCT250=



000
FTUS41 KLWX 232055 AAA
TAFBWI
TAF AMD
KBWI 232055Z 2321/2424 VRB03KT P6SM SKC
     FM240000 13005KT P6SM FEW060 FEW250
     FM240500 19005KT P6SM SCT250=



000
FTUS41 KLWX 232055 AAA
TAFIAD
TAF AMD
KIAD 232055Z 2321/2424 29006KT P6SM FEW250
     FM240000 00000KT P6SM FEW250
     FM241300 21006KT P6SM SCT250=



000
FTUS41 KLWX 232055 AAA
TAFIAD
TAF AMD
KIAD 232055Z 2321/2424 29006KT P6SM FEW250
     FM240000 00000KT P6SM FEW250
     FM241300 21006KT P6SM SCT250=



000
FTUS41 KLWX 232055 AAA
TAFDCA
TAF AMD
KDCA 232055Z 2321/2418 VRB04KT P6SM FEW250
     FM241700 21007KT P6SM SCT250=



000
FTUS41 KLWX 232055 AAA
TAFBWI
TAF AMD
KBWI 232055Z 2321/2424 VRB03KT P6SM SKC
     FM240000 13005KT P6SM FEW060 FEW250
     FM240500 19005KT P6SM SCT250=



000
FTUS41 KLWX 231741
TAFBWI
TAF
KBWI 231741Z 2318/2424 VRB03KT P6SM SCT250
     FM241200 21007KT P6SM SCT250=



000
FTUS41 KLWX 231741
TAFMTN
TAF
KMTN 231741Z 2318/2418 27004KT P6SM SCT250
     FM232100 21004KT P6SM FEW060 SCT250
     FM241700 19008KT P6SM SCT250=



000
FTUS41 KLWX 231741
TAFCHO
TAF
KCHO 231741Z 2318/2418 16004KT P6SM SCT250=



000
FTUS41 KLWX 231741
TAFIAD
TAF
KIAD 231741Z 2318/2424 00000KT P6SM SCT250=



000
FTUS41 KLWX 231741
TAFMRB
TAF
KMRB 231741Z 2318/2418 VRB03KT P6SM SCT250=



000
FTUS41 KLWX 231741
TAFDCA
TAF
KDCA 231741Z 2318/2418 00000KT P6SM SCT250
     FM240000 16006KT P6SM FEW060 FEW250=



000
FTUS41 KLWX 231741
TAFMTN
TAF
KMTN 231741Z 2318/2418 27004KT P6SM SCT250
     FM232100 21004KT P6SM FEW060 SCT250
     FM241700 19008KT P6SM SCT250=



000
FTUS41 KLWX 231741
TAFIAD
TAF
KIAD 231741Z 2318/2424 00000KT P6SM SCT250=



000
FTUS41 KLWX 231741
TAFCHO
TAF
KCHO 231741Z 2318/2418 16004KT P6SM SCT250=



000
FTUS41 KLWX 231741
TAFDCA
TAF
KDCA 231741Z 2318/2418 00000KT P6SM SCT250
     FM240000 16006KT P6SM FEW060 FEW250=



000
FTUS41 KLWX 231741
TAFMRB
TAF
KMRB 231741Z 2318/2418 VRB03KT P6SM SCT250=



000
FTUS41 KLWX 231741
TAFBWI
TAF
KBWI 231741Z 2318/2424 VRB03KT P6SM SCT250
     FM241200 21007KT P6SM SCT250=



000
FTUS41 KLWX 231431 AAA
TAFIAD
TAF AMD
KIAD 231431Z 2315/2418 00000KT P6SM FEW250=



000
FTUS41 KLWX 231431 AAA
TAFBWI
TAF AMD
KBWI 231431Z 2315/2418 35005KT P6SM FEW250
     FM232100 20004KT P6SM FEW060 FEW250
     FM241100 21008KT P6SM FEW250=



000
FTUS41 KLWX 231431 AAA
TAFDCA
TAF AMD
KDCA 231431Z 2315/2412 VRB03KT P6SM FEW250=



000
FTUS41 KLWX 231431 AAA
TAFIAD
TAF AMD
KIAD 231431Z 2315/2418 00000KT P6SM FEW250=



000
FTUS41 KLWX 231431 AAA
TAFDCA
TAF AMD
KDCA 231431Z 2315/2412 VRB03KT P6SM FEW250=



000
FTUS41 KLWX 231431 AAA
TAFBWI
TAF AMD
KBWI 231431Z 2315/2418 35005KT P6SM FEW250
     FM232100 20004KT P6SM FEW060 FEW250
     FM241100 21008KT P6SM FEW250=



000
FTUS41 KLWX 231130
TAFCHO
TAF
KCHO 231130Z 2312/2412 VRB03KT P6SM SCT250=



000
FTUS41 KLWX 231130
TAFMRB
TAF
KMRB 231130Z 2312/2412 VRB03KT P6SM FEW250=



000
FTUS41 KLWX 231130
TAFBWI
TAF
KBWI 231130Z 2312/2418 35007KT P6SM SCT250
     FM231600 VRB03KT P6SM SKC
     FM240000 17007KT P6SM FEW250=



000
FTUS41 KLWX 231130
TAFDCA
TAF
KDCA 231130Z 2312/2412 36006KT P6SM SCT250
     FM231600 00000KT P6SM SKC
     FM240000 16006KT P6SM FEW250=



000
FTUS41 KLWX 231130
TAFMTN
TAF
KMTN 231130Z 2312/2412 36008KT P6SM SCT250
     FM231700 31004KT P6SM SKC
     FM232000 24004KT P6SM SKC
     FM240000 18007KT P6SM FEW250=



000
FTUS41 KLWX 231130
TAFIAD
TAF
KIAD 231130Z 2312/2418 35004KT P6SM SCT250
     FM232100 19004KT P6SM FEW250=



000
FTUS41 KLWX 231130
TAFCHO
TAF
KCHO 231130Z 2312/2412 VRB03KT P6SM SCT250=



000
FTUS41 KLWX 231130
TAFMRB
TAF
KMRB 231130Z 2312/2412 VRB03KT P6SM FEW250=



000
FTUS41 KLWX 231130
TAFMTN
TAF
KMTN 231130Z 2312/2412 36008KT P6SM SCT250
     FM231700 31004KT P6SM SKC
     FM232000 24004KT P6SM SKC
     FM240000 18007KT P6SM FEW250=



000
FTUS41 KLWX 231130
TAFIAD
TAF
KIAD 231130Z 2312/2418 35004KT P6SM SCT250
     FM232100 19004KT P6SM FEW250=



000
FTUS41 KLWX 231130
TAFDCA
TAF
KDCA 231130Z 2312/2412 36006KT P6SM SCT250
     FM231600 00000KT P6SM SKC
     FM240000 16006KT P6SM FEW250=



000
FTUS41 KLWX 231130
TAFBWI
TAF
KBWI 231130Z 2312/2418 35007KT P6SM SCT250
     FM231600 VRB03KT P6SM SKC
     FM240000 17007KT P6SM FEW250=



000
FTUS41 KLWX 230850 AAA
TAFBWI
TAF AMD
KBWI 230850Z 2309/2412 31005KT P6SM FEW250
     FM232100 20004KT P6SM SKC=



000
FTUS41 KLWX 230850 AAA
TAFIAD
TAF AMD
KIAD 230850Z 2309/2412 00000KT P6SM SKC
     FM232100 19004KT P6SM FEW250=



000
FTUS41 KLWX 230850 AAA
TAFDCA
TAF AMD
KDCA 230850Z 2309/2406 34010KT P6SM SKC
     FM232100 19004KT P6SM FEW250=



000
FTUS41 KLWX 230534
TAFCHO
TAF
KCHO 230534Z 2306/2406 VRB03KT P6SM FEW250
     FM231700 16005KT P6SM FEW250=



000
FTUS41 KLWX 230534
TAFIAD
TAF
KIAD 230534Z 2306/2412 30005KT P6SM FEW250=



000
FTUS41 KLWX 230534
TAFMTN
TAF
KMTN 230534Z 2306/2406 NIL=



000
FTUS41 KLWX 230534
TAFBWI
TAF
KBWI 230534Z 2306/2412 29004KT P6SM FEW250=



000
FTUS41 KLWX 230534
TAFDCA
TAF
KDCA 230534Z 2306/2406 28007KT P6SM FEW250=



000
FTUS41 KLWX 230534
TAFMRB
TAF
KMRB 230534Z 2306/2406 VRB03KT P6SM FEW250=



000
FTUS41 KLWX 222323
TAFMRB
TAF
KMRB 222323Z 2300/2324 28010G18KT P6SM BKN060
     FM230100 30008KT P6SM SCT060
     FM230800 32004KT P6SM SKC
     FM231800 26004KT P6SM FEW200=



000
FTUS41 KLWX 222323
TAFDCA
TAF
KDCA 222323Z 2300/2324 30010G18KT P6SM SCT070
     FM230100 30009KT P6SM SCT070
     FM230800 32005KT P6SM SKC
     FM232000 25005KT P6SM FEW200=



000
FTUS41 KLWX 222323
TAFBWI
TAF
KBWI 222323Z 2300/2406 30012G22KT P6SM SCT060
     FM230100 29009KT P6SM SCT060
     FM230900 33005KT P6SM SKC
     FM231900 27005KT P6SM SKC
     FM232300 21004KT P6SM FEW200=



000
FTUS41 KLWX 222323
TAFMRB
TAF
KMRB 222323Z 2300/2324 28010G18KT P6SM BKN060
     FM230100 30008KT P6SM SCT060
     FM230800 32004KT P6SM SKC
     FM231800 26004KT P6SM FEW200=



000
FTUS41 KLWX 222323
TAFMTN
TAF
KMTN 222323Z 2300/2324 31011G21KT P6SM SCT060
     FM230200 31009KT P6SM FEW070
     FM231000 34005KT P6SM SKC
     FM231800 28005KT P6SM SKC
     FM232200 22004KT P6SM FEW200
      AMD NOT SKED 2302/2312=



000
FTUS41 KLWX 222323
TAFCHO
TAF
KCHO 222323Z 2300/2324 30005KT P6SM FEW080
     FM230900 00000KT P6SM FEW200=



000
FTUS41 KLWX 222323
TAFIAD
TAF
KIAD 222323Z 2300/2406 31011G22KT P6SM SCT060
     FM230200 31009KT P6SM SCT060
     FM230800 33005KT P6SM SKC
     FM231900 27004KT P6SM FEW200
     FM232300 21004KT P6SM FEW150
     FM240500 VRB03KT P6SM FEW050=



000
FTUS41 KLWX 222323
TAFDCA
TAF
KDCA 222323Z 2300/2324 30010G18KT P6SM SCT070
     FM230100 30009KT P6SM SCT070
     FM230800 32005KT P6SM SKC
     FM232000 25005KT P6SM FEW200=



000
FTUS41 KLWX 222323
TAFCHO
TAF
KCHO 222323Z 2300/2324 30005KT P6SM FEW080
     FM230900 00000KT P6SM FEW200=



000
FTUS41 KLWX 222323
TAFBWI
TAF
KBWI 222323Z 2300/2406 30012G22KT P6SM SCT060
     FM230100 29009KT P6SM SCT060
     FM230900 33005KT P6SM SKC
     FM231900 27005KT P6SM SKC
     FM232300 21004KT P6SM FEW200=



000
FTUS41 KLWX 222323
TAFIAD
TAF
KIAD 222323Z 2300/2406 31011G22KT P6SM SCT060
     FM230200 31009KT P6SM SCT060
     FM230800 33005KT P6SM SKC
     FM231900 27004KT P6SM FEW200
     FM232300 21004KT P6SM FEW150
     FM240500 VRB03KT P6SM FEW050=



000
FTUS41 KLWX 222323
TAFMTN
TAF
KMTN 222323Z 2300/2324 31011G21KT P6SM SCT060
     FM230200 31009KT P6SM FEW070
     FM231000 34005KT P6SM SKC
     FM231800 28005KT P6SM SKC
     FM232200 22004KT P6SM FEW200
      AMD NOT SKED 2302/2312=



000
FTUS41 KLWX 222054 AAA
TAFIAD
TAF AMD
KIAD 222054Z 2221/2324 29014G22KT P6SM SCT070
     FM230100 31008KT P6SM FEW200
     FM230900 33004KT P6SM SKC
     FM231900 27004KT P6SM FEW200
     FM232300 21004KT P6SM FEW150=



000
FTUS41 KLWX 222054 AAA
TAFDCA
TAF AMD
KDCA 222054Z 2221/2318 28014G21KT P6SM SCT070
     FM230000 30009KT P6SM FEW200
     FM230800 32005KT P6SM SKC=



000
FTUS41 KLWX 222054 AAA
TAFBWI
TAF AMD
KBWI 222054Z 2221/2324 28014G21KT P6SM BKN070
     FM222300 29011KT P6SM SCT070
     FM230200 31007KT P6SM SKC
     FM232000 25005KT P6SM SKC=



000
FTUS41 KLWX 221733
TAFCHO
TAF
KCHO 221733Z 2218/2318 27008KT P6SM FEW080 FEW250
     FM230400 33005KT P6SM FEW250=



000
FTUS41 KLWX 221733
TAFMRB
TAF
KMRB 221733Z 2218/2318 28015G25KT P6SM SCT080
     FM221900 28015G25KT P6SM BKN080
     FM222100 29016G25KT P6SM FEW070 SCT080
     FM230100 31009KT P6SM FEW250
     FM230700 32005KT P6SM SKC=



000
FTUS41 KLWX 221733
TAFDCA
TAF
KDCA 221733Z 2218/2318 30012G23KT P6SM FEW080
     FM230100 31008KT P6SM FEW200
     FM230900 33004KT P6SM SKC=



000
FTUS41 KLWX 221733
TAFMTN
TAF
KMTN 221733Z 2218/2318 28013G25KT P6SM SCT080
     FM230100 30012G18KT P6SM FEW250
     FM231000 34005KT P6SM SKC=



000
FTUS41 KLWX 221733
TAFIAD
TAF
KIAD 221733Z 2218/2324 28013G22KT P6SM FEW080
     FM222300 31008KT P6SM FEW200
     FM230900 33004KT P6SM SKC
     FM231900 27004KT P6SM FEW200
     FM232300 21004KT P6SM FEW150=



000
FTUS41 KLWX 221733
TAFBWI
TAF
KBWI 221733Z 2218/2324 28012G23KT P6SM SCT080
     FM222200 28010KT P6SM FEW070 SCT080
     FM230000 29009KT P6SM FEW250
     FM230900 33005KT P6SM SKC
     FM231900 27005KT P6SM SKC
     FM232300 21004KT P6SM FEW200=



000
FTUS41 KLWX 221456 AAA
TAFIAD
TAF AMD
KIAD 221456Z 2215/2318 30012G20KT P6SM SCT250
     FM221800 27010G22KT P6SM FEW250
     FM230000 30009KT P6SM SCT080
     FM230900 33005KT P6SM SKC=



000
FTUS41 KLWX 221456 AAA
TAFDCA
TAF AMD
KDCA 221456Z 2215/2312 30010G20KT P6SM FEW250
     FM221800 27010G22KT P6SM FEW250
     FM230000 30009KT P6SM SCT080
     FM230900 33005KT P6SM SKC=



000
FTUS41 KLWX 221456 AAA
TAFBWI
TAF AMD
KBWI 221456Z 2215/2318 30010G20KT P6SM FEW250
     FM221800 27010G22KT P6SM FEW250
     FM222200 30008KT P6SM FEW250
     FM231600 33004KT P6SM FEW250=



000
FTUS41 KLWX 221138
TAFCHO
TAF
KCHO 221138Z 2212/2312 VRB04KT P6SM SKC
     FM221500 32010KT P6SM SCT250
     FM222200 27005KT P6SM SCT250
     FM230600 33004KT P6SM SKC=



000
FTUS41 KLWX 221138
TAFIAD
TAF
KIAD 221138Z 2212/2318 31010KT P6SM SKC
     FM221400 30012G18KT P6SM SCT250
     FM221800 27010G22KT P6SM FEW250
     FM230000 30009KT P6SM SCT080
     FM230900 33005KT P6SM SKC=



000
FTUS41 KLWX 221138
TAFDCA
TAF
KDCA 221138Z 2212/2312 30010KT P6SM SKC
     FM221400 30010G18KT P6SM FEW250
     FM221800 27010G22KT P6SM FEW250
     FM230000 30009KT P6SM SCT080
     FM230900 33005KT P6SM SKC=



000
FTUS41 KLWX 221138
TAFCHO
TAF
KCHO 221138Z 2212/2312 VRB04KT P6SM SKC
     FM221500 32010KT P6SM SCT250
     FM222200 27005KT P6SM SCT250
     FM230600 33004KT P6SM SKC=



000
FTUS41 KLWX 221138
TAFBWI
TAF
KBWI 221138Z 2212/2318 27006KT P6SM SKC
     FM221400 30010G18KT P6SM FEW250
     FM221800 27010G22KT P6SM FEW250
     FM222200 30008KT P6SM FEW250
     FM231600 33004KT P6SM FEW250=



000
FTUS41 KLWX 221138
TAFMTN
TAF
KMTN 221138Z 2212/2312 30010KT P6SM FEW250
     FM221400 30012G22KT P6SM SCT070
     FM221800 27010G22KT P6SM FEW250
     FM230100 30009KT P6SM FEW250=



000
FTUS41 KLWX 221138
TAFMRB
TAF
KMRB 221138Z 2212/2312 27008KT P6SM FEW250
     FM221400 27013G23KT P6SM SCT080
     FM230000 30009KT P6SM FEW070
     FM230700 32005KT P6SM SKC=



000
FTUS41 KLWX 221138
TAFMTN
TAF
KMTN 221138Z 2212/2312 30010KT P6SM FEW250
     FM221400 30012G22KT P6SM SCT070
     FM221800 27010G22KT P6SM FEW250
     FM230100 30009KT P6SM FEW250=



000
FTUS41 KLWX 221138
TAFIAD
TAF
KIAD 221138Z 2212/2318 31010KT P6SM SKC
     FM221400 30012G18KT P6SM SCT250
     FM221800 27010G22KT P6SM FEW250
     FM230000 30009KT P6SM SCT080
     FM230900 33005KT P6SM SKC=



000
FTUS41 KLWX 221138
TAFMRB
TAF
KMRB 221138Z 2212/2312 27008KT P6SM FEW250
     FM221400 27013G23KT P6SM SCT080
     FM230000 30009KT P6SM FEW070
     FM230700 32005KT P6SM SKC=



000
FTUS41 KLWX 221138
TAFBWI
TAF
KBWI 221138Z 2212/2318 27006KT P6SM SKC
     FM221400 30010G18KT P6SM FEW250
     FM221800 27010G22KT P6SM FEW250
     FM222200 30008KT P6SM FEW250
     FM231600 33004KT P6SM FEW250=



000
FTUS41 KLWX 221138
TAFDCA
TAF
KDCA 221138Z 2212/2312 30010KT P6SM SKC
     FM221400 30010G18KT P6SM FEW250
     FM221800 27010G22KT P6SM FEW250
     FM230000 30009KT P6SM SCT080
     FM230900 33005KT P6SM SKC=



000
FTUS41 KLWX 220925 AAA
TAFCHO
TAF AMD
KCHO 220925Z 2209/2306 31009G16KT P6SM SKC
     FM221900 28009G16KT P6SM FEW250
     FM230200 32005KT P6SM SCT250=



000
FTUS41 KLWX 220840 AAA
TAFBWI
TAF AMD
KBWI 220840Z 2209/2312 28005KT P6SM FEW050
     FM221400 28013G21KT P6SM SCT070
     FM230200 31010KT P6SM SCT250
     FM230900 32006KT P6SM FEW250=



000
FTUS41 KLWX 220840 AAA
TAFBWI
TAF AMD
KBWI 220840Z 2209/2312 28005KT P6SM FEW050
     FM221400 28013G21KT P6SM SCT070
     FM230200 31010KT P6SM SCT250
     FM230900 32006KT P6SM FEW250=



000
FTUS41 KLWX 220839 AAA
TAFDCA
TAF AMD
KDCA 220839Z 2209/2306 29006KT P6SM FEW040
     FM221400 29013G19KT P6SM FEW250
     FM230200 32009KT P6SM SCT250=



000
FTUS41 KLWX 220839 AAA
TAFDCA
TAF AMD
KDCA 220839Z 2209/2306 29006KT P6SM FEW040
     FM221400 29013G19KT P6SM FEW250
     FM230200 32009KT P6SM SCT250=



000
FTUS41 KLWX 220837 AAA
TAFIAD
TAF AMD
KIAD 220837Z 2209/2312 30006KT P6SM SKC
     FM221400 29014G24KT P6SM FEW250
     FM230300 33009KT P6SM FEW250
     FM230800 32005KT P6SM FEW250=



000
FTUS41 KLWX 220537
TAFIAD
TAF
KIAD 220537Z 2206/2312 31013G19KT P6SM SCT060
     FM221600 29014G24KT P6SM FEW250
     FM230300 33009KT P6SM FEW250
     FM230800 32005KT P6SM FEW250=



000
FTUS41 KLWX 220537
TAFBWI
TAF
KBWI 220537Z 2206/2312 29005KT P6SM SCT080
     FM221100 30009KT P6SM FEW250
     FM221800 28013G21KT P6SM SCT070
     FM230200 31010KT P6SM SCT250
     FM230900 32006KT P6SM FEW250=



000
FTUS41 KLWX 220537
TAFCHO
TAF
KCHO 220537Z 2206/2306 32005KT P6SM SCT250
     FM221900 28009G16KT P6SM FEW250
     FM230200 32005KT P6SM SCT250=



000
FTUS41 KLWX 220537
TAFDCA
TAF
KDCA 220537Z 2206/2306 30005KT P6SM FEW030 SCT070
     FM221800 29013G19KT P6SM FEW250
     FM230200 32009KT P6SM SCT250=



000
FTUS41 KLWX 220537
TAFMRB
TAF
KMRB 220537Z 2206/2306 29009KT P6SM SCT070
     FM221500 29014G24KT P6SM SCT250
     FM230500 32006KT P6SM FEW250=



000
FTUS41 KLWX 220537
TAFMTN
TAF
KMTN 220537Z 2206/2306 NIL=



000
FTUS41 KLWX 220537
TAFCHO
TAF
KCHO 220537Z 2206/2306 32005KT P6SM SCT250
     FM221900 28009G16KT P6SM FEW250
     FM230200 32005KT P6SM SCT250=



000
FTUS41 KLWX 220537
TAFIAD
TAF
KIAD 220537Z 2206/2312 31013G19KT P6SM SCT060
     FM221600 29014G24KT P6SM FEW250
     FM230300 33009KT P6SM FEW250
     FM230800 32005KT P6SM FEW250=



000
FTUS41 KLWX 220537
TAFMRB
TAF
KMRB 220537Z 2206/2306 29009KT P6SM SCT070
     FM221500 29014G24KT P6SM SCT250
     FM230500 32006KT P6SM FEW250=



000
FTUS41 KLWX 220537
TAFMTN
TAF
KMTN 220537Z 2206/2306 NIL=



000
FTUS41 KLWX 220537
TAFBWI
TAF
KBWI 220537Z 2206/2312 29005KT P6SM SCT080
     FM221100 30009KT P6SM FEW250
     FM221800 28013G21KT P6SM SCT070
     FM230200 31010KT P6SM SCT250
     FM230900 32006KT P6SM FEW250=



000
FTUS41 KLWX 220537
TAFDCA
TAF
KDCA 220537Z 2206/2306 30005KT P6SM FEW030 SCT070
     FM221800 29013G19KT P6SM FEW250
     FM230200 32009KT P6SM SCT250=



000
FTUS41 KLWX 220428 AAB
TAFMRB
TAF AMD
KMRB 220428Z 2204/2224 31013G15KT P6SM FEW060 BKN100
     FM220700 30007KT P6SM SCT250
     FM221500 29011KT P6SM SCT250=



000
FTUS41 KLWX 220427 AAA
TAFMTN
TAF AMD
KMTN 220427Z 2204/2224 26004KT P6SM SCT110
     FM221000 31008KT P6SM SCT250
     FM221800 28013KT P6SM SCT090
      AMD NOT SKED TIL 221200=



000
FTUS41 KLWX 220216 AAA
TAFBWI
TAF AMD
KBWI 220216Z 2202/2306 30004KT P6SM FEW018 BKN045
     FM220800 30006KT P6SM SCT250
     FM221400 30010KT P6SM FEW250
     FM222000 29014G22KT P6SM SCT250
     FM230200 31010KT P6SM SCT250=



000
FTUS41 KLWX 220216 AAA
TAFIAD
TAF AMD
KIAD 220216Z 2202/2306 32005KT P6SM FEW013 SCT045 BKN080
     FM220700 31006KT P6SM SCT250
     FM221400 30010KT P6SM FEW250=



000
FTUS41 KLWX 220216 AAA
TAFDCA
TAF AMD
KDCA 220216Z 2202/2224 32006KT P6SM FEW013
     FM221000 31008KT P6SM FEW250
     FM221800 28012KT P6SM FEW250=



000
FTUS41 KLWX 220016 AAA
TAFMRB
TAF AMD
KMRB 220016Z 2200/2224 00000KT 3SM -RA OVC015
     FM220300 30004KT P6SM BKN030
     FM220500 30006KT P6SM SCT050
     FM220700 30007KT P6SM SCT250
     FM221500 29011KT P6SM SCT250=



000
FTUS41 KLWX 220016 AAA
TAFMRB
TAF AMD
KMRB 220016Z 2200/2224 00000KT 3SM -RA OVC015
     FM220300 30004KT P6SM BKN030
     FM220500 30006KT P6SM SCT050
     FM220700 30007KT P6SM SCT250
     FM221500 29011KT P6SM SCT250=



000
FTUS41 KLWX 212322
TAFCHO
TAF
KCHO 212322Z 2200/2224 VRB03KT P6SM OVC010
     FM220300 VRB03KT P6SM BKN030
     FM220400 32004KT P6SM BKN100
     FM220500 32004KT P6SM SCT200
     FM221900 28009KT P6SM FEW250=



000
FTUS41 KLWX 212322
TAFDCA
TAF
KDCA 212322Z 2200/2224 05004KT P6SM OVC010
     FM220100 02004KT P6SM OVC015
     FM220500 31004KT P6SM BKN025
     FM221000 31008KT P6SM FEW250
     FM221800 28012KT P6SM FEW250=



000
FTUS41 KLWX 212322
TAFMTN
TAF
KMTN 212322Z 2200/2224 VRB03KT P6SM OVC015
     FM220600 32004KT P6SM SCT110
     FM221000 31008KT P6SM SCT250
     FM221800 28013KT P6SM SCT090
      AMD NOT SKED 2202/2212=



000
FTUS41 KLWX 212322
TAFMRB
TAF
KMRB 212322Z 2200/2224 00000KT P6SM OVC015
     FM220300 30004KT P6SM BKN030
     FM220500 30006KT P6SM SCT050
     FM220700 30007KT P6SM SCT250
     FM221500 29011KT P6SM SCT250=



000
FTUS41 KLWX 212322
TAFIAD
TAF
KIAD 212322Z 2200/2306 VRB03KT P6SM OVC010
     FM220100 VRB03KT P6SM OVC015
     FM220500 32006KT P6SM SCT035
     FM220700 31006KT P6SM SCT250
     FM221400 30010KT P6SM FEW250=



000
FTUS41 KLWX 212322
TAFBWI
TAF
KBWI 212322Z 2200/2306 VRB03KT P6SM OVC015
     FM220500 29004KT P6SM SCT015
     FM220800 30006KT P6SM SCT250
     FM221400 30010KT P6SM FEW250
     FM222000 29014G22KT P6SM SCT250
     FM230200 31010KT P6SM SCT250=



000
FTUS41 KLWX 212322
TAFCHO
TAF
KCHO 212322Z 2200/2224 VRB03KT P6SM OVC010
     FM220300 VRB03KT P6SM BKN030
     FM220400 32004KT P6SM BKN100
     FM220500 32004KT P6SM SCT200
     FM221900 28009KT P6SM FEW250=



000
FTUS41 KLWX 212322
TAFDCA
TAF
KDCA 212322Z 2200/2224 05004KT P6SM OVC010
     FM220100 02004KT P6SM OVC015
     FM220500 31004KT P6SM BKN025
     FM221000 31008KT P6SM FEW250
     FM221800 28012KT P6SM FEW250=



000
FTUS41 KLWX 212322
TAFMTN
TAF
KMTN 212322Z 2200/2224 VRB03KT P6SM OVC015
     FM220600 32004KT P6SM SCT110
     FM221000 31008KT P6SM SCT250
     FM221800 28013KT P6SM SCT090
      AMD NOT SKED 2202/2212=



000
FTUS41 KLWX 212322
TAFMRB
TAF
KMRB 212322Z 2200/2224 00000KT P6SM OVC015
     FM220300 30004KT P6SM BKN030
     FM220500 30006KT P6SM SCT050
     FM220700 30007KT P6SM SCT250
     FM221500 29011KT P6SM SCT250=



000
FTUS41 KLWX 212322
TAFIAD
TAF
KIAD 212322Z 2200/2306 VRB03KT P6SM OVC010
     FM220100 VRB03KT P6SM OVC015
     FM220500 32006KT P6SM SCT035
     FM220700 31006KT P6SM SCT250
     FM221400 30010KT P6SM FEW250=



000
FTUS41 KLWX 212322
TAFBWI
TAF
KBWI 212322Z 2200/2306 VRB03KT P6SM OVC015
     FM220500 29004KT P6SM SCT015
     FM220800 30006KT P6SM SCT250
     FM221400 30010KT P6SM FEW250
     FM222000 29014G22KT P6SM SCT250
     FM230200 31010KT P6SM SCT250=



000
FTUS41 KLWX 212049 AAA
TAFIAD
TAF AMD
KIAD 212049Z 2121/2224 08004KT P6SM OVC008
     FM220100 VRB03KT P6SM BKN015
     FM220300 32004KT P6SM BKN045
     FM220500 32006KT P6SM SCT060
     FM221400 30010KT P6SM FEW250=



000
FTUS41 KLWX 212049 AAB
TAFMRB
TAF AMD
KMRB 212049Z 2121/2218 VRB03KT P6SM OVC008
     FM220000 00000KT P6SM BKN015
     FM220200 VRB03KT P6SM BKN030
     FM220300 30004KT P6SM BKN045
     FM220400 30005KT P6SM SCT060
     FM221300 29009KT P6SM FEW250
     FM221700 28013KT P6SM SCT130=



000
FTUS41 KLWX 212049 AAB
TAFCHO
TAF AMD
KCHO 212049Z 2121/2218 05004KT P6SM OVC008
     FM220000 VRB03KT P6SM BKN010
     FM220200 VRB03KT P6SM BKN030
     FM220300 VRB03KT P6SM BKN050
     FM220400 32004KT P6SM SCT070=



000
FTUS41 KLWX 212049 AAB
TAFMTN
TAF AMD
KMTN 212049Z 2121/2218 VRB03KT P6SM OVC008
     FM212300 VRB03KT P6SM OVC015
     FM220400 31004KT P6SM BKN025
     FM220500 31004KT P6SM BKN025
     FM221200 30008KT P6SM FEW250=



000
FTUS41 KLWX 212049 AAB
TAFDCA
TAF AMD
KDCA 212049Z 2121/2218 06005KT P6SM OVC008
     FM220100 02004KT P6SM BKN015
     FM220300 VRB03KT P6SM BKN050
     FM220500 31004KT P6SM SCT070
     FM221200 30008KT P6SM FEW250=



000
FTUS41 KLWX 212049 AAB
TAFBWI
TAF AMD
KBWI 212049Z 2121/2224 05004KT P6SM OVC015
     FM220400 30004KT P6SM BKN025
     FM220500 29004KT P6SM SCT025
     FM220800 30006KT P6SM SCT250
     FM221500 29010KT P6SM FEW250=



000
FTUS41 KLWX 211857 AAA
TAFMRB
TAF AMD
KMRB 211857Z 2119/2218 12005KT 4SM BR SCT009 OVC020
      TEMPO 2119/2121 BKN009 OVC015
     FM220100 VRB03KT P6SM BKN035
     FM220900 31008KT P6SM SCT120
     FM221400 29013G22KT P6SM FEW060=



000
FTUS41 KLWX 211855 AAA
TAFMTN
TAF AMD
KMTN 211855Z 2119/2218 VRB04KT 3SM -RA BKN007 OVC012
     FM212300 VRB05KT P6SM SCT012 OVC030
     FM220500 30006KT P6SM SCT060
     FM221300 30012G18KT P6SM FEW250=



000
FTUS41 KLWX 211855 AAA
TAFCHO
TAF AMD
KCHO 211855Z 2119/2218 36006KT 4SM -RA OVC007
     FM212200 02005KT P6SM OVC020
     FM220400 VRB03KT P6SM SCT070=



000
FTUS41 KLWX 211854 AAA
TAFDCA
TAF AMD
KDCA 211854Z 2119/2218 05010KT 5SM -RA BR BKN007 OVC050
     FM212000 02006KT P6SM -DZ BKN007 BKN015
     FM220200 VRB05KT P6SM BKN040
     FM220500 32007KT P6SM SCT080
     FM221300 31014G21KT P6SM FEW250=



000
FTUS41 KLWX 211750 AAA
TAFBWI
TAF AMD
KBWI 211750Z 2118/2224 VRB05KT 6SM -RA SCT015 SCT030 OVC050
      TEMPO 2118/2121 2SM RA SCT009 OVC015
     FM212200 VRB05KT P6SM SCT012 OVC030
     FM220300 30006KT P6SM SCT060
     FM221400 30012G18KT P6SM FEW250
     FM221800 28014G22KT P6SM FEW060=



000
FTUS41 KLWX 211750 AAA
TAFBWI
TAF AMD
KBWI 211750Z 2118/2224 VRB05KT 6SM -RA SCT015 SCT030 OVC050
      TEMPO 2118/2121 2SM RA SCT009 OVC015
     FM212200 VRB05KT P6SM SCT012 OVC030
     FM220300 30006KT P6SM SCT060
     FM221400 30012G18KT P6SM FEW250
     FM221800 28014G22KT P6SM FEW060=



000
FTUS41 KLWX 211742 CCA
TAFMRB
TAF COR
KMRB 211742Z 2118/2218 VRB05KT 4SM BR SCT008 OVC020
     FM220300 VRB03KT P6SM BKN035
     FM220900 31008KT P6SM SCT120
     FM221400 29013G22KT P6SM FEW060=



000
FTUS41 KLWX 211740
TAFMTN
TAF
KMTN 211740Z 2118/2218 VRB04KT P6SM -RA SCT009 OVC015
     FM212200 VRB05KT P6SM SCT012 OVC030
     FM220500 30006KT P6SM SCT060
     FM221300 30012G18KT P6SM FEW250=



000
FTUS41 KLWX 211740
TAFBWI
TAF
KBWI 211740Z 2118/2224 VRB05KT 6SM -RA SCT015 SCT030 OVC050
     FM212200 VRB05KT P6SM SCT012 OVC030
     FM220300 30006KT P6SM SCT060
     FM221400 30012G18KT P6SM FEW250
     FM221800 28014G22KT P6SM FEW060=



000
FTUS41 KLWX 211740
TAFMRB
TAF
KMRB 211740Z 2118/2218 VRB05KT 4SM BR SCT008 OVC020
     FM212000 VRB03KT P6SM BKN035
     FM220400 31006KT P6SM SCT120=



000
FTUS41 KLWX 211740
TAFCHO
TAF
KCHO 211740Z 2118/2218 02006KT 2SM -RA OVC005
     FM212000 02005KT P6SM OVC015
     FM220100 00000KT P6SM BKN030
     FM220400 VRB03KT P6SM SCT070=



000
FTUS41 KLWX 211740
TAFIAD
TAF
KIAD 211740Z 2118/2224 08008KT P6SM -RA SCT008 BKN020 OVC050
      TEMPO 2118/2120 5SM -RA BKN008 OVC050
     FM212000 VRB05KT P6SM -DZ BKN025 OVC050
     FM220100 33005KT P6SM BKN050
     FM220500 31007KT P6SM SCT080
     FM221400 30012G20KT P6SM FEW250
     FM221900 30014G23KT P6SM FEW060=



000
FTUS41 KLWX 211740
TAFDCA
TAF
KDCA 211740Z 2118/2218 05010KT 3SM -RA SCT009 OVC012
      TEMPO 2118/2121 BKN009
     FM212200 02006KT P6SM -DZ BKN025
     FM220200 VRB05KT P6SM BKN040
     FM220500 32007KT P6SM SCT080
     FM221300 31014G21KT P6SM FEW250=



000
FTUS41 KLWX 211620 AAB
TAFBWI
TAF AMD
KBWI 211620Z 2116/2218 04006KT 3SM -RA SCT030 OVC050
     FM211800 03005KT 6SM -RA SCT015 BKN030
     FM220200 VRB04KT P6SM SCT040 BKN080
     FM220800 29009KT P6SM FEW250=



000
FTUS41 KLWX 211619 AAC
TAFDCA
TAF AMD
KDCA 211619Z 2116/2212 05008KT 4SM -RA SCT009 OVC012
      TEMPO 2116/2118 2SM -RA BR BKN009
     FM212000 02006KT P6SM -RA BKN015
     FM220200 35005KT P6SM BKN035
     FM220500 31007KT P6SM SCT080=



000
FTUS41 KLWX 211459 AAC
TAFIAD
TAF AMD
KIAD 211459Z 2115/2218 VRB05KT 3SM -RA SCT008 BKN012 OVC035
      TEMPO 2115/2119 2SM RA BR BKN008 OVC012
     FM212200 VRB04KT 5SM -DZ BR BKN015
     FM220000 35005KT P6SM BKN035
     FM220500 30006KT P6SM SCT060
     FM221400 30011KT P6SM FEW250=



000
FTUS41 KLWX 211453 AAA
TAFMRB
TAF AMD
KMRB 211453Z 2115/2212 03005KT 5SM -RA OVC025
     FM212000 VRB03KT P6SM BKN035
     FM220400 31006KT P6SM SCT120=



000
FTUS41 KLWX 211452 AAA
TAFCHO
TAF AMD
KCHO 211452Z 2115/2212 05005KT 2SM -RA SCT009 OVC020
     FM211700 02006KT 4SM -RA OVC010
     FM212000 02005KT P6SM OVC015
     FM220100 00000KT P6SM BKN030
     FM220400 VRB03KT P6SM SCT070=



000
FTUS41 KLWX 211452 AAA
TAFCHO
TAF AMD
KCHO 211452Z 2115/2212 05005KT 2SM -RA SCT009 OVC020
     FM211700 02006KT 4SM -RA OVC010
     FM212000 02005KT P6SM OVC015
     FM220100 00000KT P6SM BKN030
     FM220400 VRB03KT P6SM SCT070=



000
FTUS41 KLWX 211430 AAB
TAFIAD
TAF AMD
KIAD 211430Z 2115/2218 VRB05KT 3SM -RA SCT008 BKN010 OVC035
     FM212200 VRB04KT 5SM -DZ BR BKN015
     FM220000 35005KT P6SM BKN035
     FM220500 30006KT P6SM SCT060
     FM221400 30011KT P6SM FEW250=



000
FTUS41 KLWX 211430 AAB
TAFIAD
TAF AMD
KIAD 211430Z 2115/2218 VRB05KT 3SM -RA SCT008 BKN010 OVC035
     FM212200 VRB04KT 5SM -DZ BR BKN015
     FM220000 35005KT P6SM BKN035
     FM220500 30006KT P6SM SCT060
     FM221400 30011KT P6SM FEW250=



000
FTUS41 KLWX 211428 AAB
TAFDCA
TAF AMD
KDCA 211428Z 2114/2212 VRB05KT 3SM -RA SCT009 OVC012
     FM212000 02006KT P6SM -RA BKN015
     FM220200 35005KT P6SM BKN035
     FM220500 31007KT P6SM SCT080=



000
FTUS41 KLWX 211428 AAB
TAFDCA
TAF AMD
KDCA 211428Z 2114/2212 VRB05KT 3SM -RA SCT009 OVC012
     FM212000 02006KT P6SM -RA BKN015
     FM220200 35005KT P6SM BKN035
     FM220500 31007KT P6SM SCT080=



000
FTUS41 KLWX 211410 AAA
TAFIAD
TAF AMD
KIAD 211410Z 2114/2218 VRB05KT 5SM -RA SCT025 OVC040
     FM211500 04006KT 5SM -RA SCT008 OVC030
     FM212100 VRB04KT P6SM -DZ BKN015
     FM220000 35005KT P6SM BKN035
     FM220500 30006KT P6SM SCT060
     FM221400 30011KT P6SM FEW250=



000
FTUS41 KLWX 211410 AAA
TAFIAD
TAF AMD
KIAD 211410Z 2114/2218 VRB05KT 5SM -RA SCT025 OVC040
     FM211500 04006KT 5SM -RA SCT008 OVC030
     FM212100 VRB04KT P6SM -DZ BKN015
     FM220000 35005KT P6SM BKN035
     FM220500 30006KT P6SM SCT060
     FM221400 30011KT P6SM FEW250=



000
FTUS41 KLWX 211408 AAA
TAFBWI
TAF AMD
KBWI 211408Z 2114/2218 10007KT P6SM -RA OVC050
     FM211800 05005KT 6SM -RA SCT015 BKN030
     FM220200 VRB04KT P6SM SCT040 BKN080
     FM220800 29009KT P6SM FEW250=



000
FTUS41 KLWX 211408 AAA
TAFBWI
TAF AMD
KBWI 211408Z 2114/2218 10007KT P6SM -RA OVC050
     FM211800 05005KT 6SM -RA SCT015 BKN030
     FM220200 VRB04KT P6SM SCT040 BKN080
     FM220800 29009KT P6SM FEW250=



000
FTUS41 KLWX 211407 AAA
TAFMTN
TAF AMD
KMTN 211407Z 2114/2212 VRB04KT P6SM -RA SCT009 BKN020
     FM220400 30006KT P6SM SCT080=



000
FTUS41 KLWX 211407 AAA
TAFMTN
TAF AMD
KMTN 211407Z 2114/2212 VRB04KT P6SM -RA SCT009 BKN020
     FM220400 30006KT P6SM SCT080=



000
FTUS41 KLWX 211407 AAA
TAFDCA
TAF AMD
KDCA 211407Z 2114/2212 09006KT 5SM -RA SCT009 OVC025
     FM212000 02006KT P6SM -RA BKN015
     FM220200 35005KT P6SM BKN035
     FM220500 31007KT P6SM SCT080=



000
FTUS41 KLWX 211407 AAA
TAFDCA
TAF AMD
KDCA 211407Z 2114/2212 09006KT 5SM -RA SCT009 OVC025
     FM212000 02006KT P6SM -RA BKN015
     FM220200 35005KT P6SM BKN035
     FM220500 31007KT P6SM SCT080=



000
FTUS41 KLWX 211142 CCA
TAFCHO
TAF COR
KCHO 211142Z 2112/2212 05004KT P6SM -RA OVC040
     FM211400 05006KT 6SM -RA OVC025
     FM211700 02007KT 6SM -RA OVC010
     FM212000 02005KT P6SM OVC015
     FM220100 00000KT P6SM BKN030
     FM220400 VRB03KT P6SM SCT070=



000
FTUS41 KLWX 211142 CCA
TAFMRB
TAF COR
KMRB 211142Z 2112/2212 05005KT P6SM -RA OVC040
     FM212000 VRB03KT P6SM BKN020
     FM220200 VRB03KT P6SM BKN040
     FM220400 31006KT P6SM SCT120=



000
FTUS41 KLWX 211142 CCA
TAFCHO
TAF COR
KCHO 211142Z 2112/2212 05004KT P6SM -RA OVC040
     FM211400 05006KT 6SM -RA OVC025
     FM211700 02007KT 6SM -RA OVC010
     FM212000 02005KT P6SM OVC015
     FM220100 00000KT P6SM BKN030
     FM220400 VRB03KT P6SM SCT070=



000
FTUS41 KLWX 211142 CCA
TAFMRB
TAF COR
KMRB 211142Z 2112/2212 05005KT P6SM -RA OVC040
     FM212000 VRB03KT P6SM BKN020
     FM220200 VRB03KT P6SM BKN040
     FM220400 31006KT P6SM SCT120=



000
FTUS41 KLWX 211140
TAFIAD
TAF
KIAD 211140Z 2112/2218 VRB05KT P6SM -RA OVC045
     FM211600 04006KT 6SM -RA SCT008 OVC030
     FM212100 VRB04KT P6SM -DZ BKN015
     FM220000 35005KT P6SM BKN035
     FM220500 30006KT P6SM SCT060
     FM221400 30011KT P6SM FEW250=



000
FTUS41 KLWX 211140
TAFDCA
TAF
KDCA 211140Z 2112/2212 10007KT P6SM -RA OVC045
     FM211600 04006KT 6SM -RA SCT009 OVC030
     FM212000 01006KT P6SM -RA BKN015
     FM220200 35005KT P6SM BKN035
     FM220500 31007KT P6SM SCT080=



000
FTUS41 KLWX 211140
TAFCHO
TAF
KCHO 211140Z 2112/2212 05004KT P6SM -RA OVC040
     FM211400 05006KT 6SM -SHRA OVC025
     FM211700 02007KT 6SM -SHRA OVC010
     FM212000 02005KT P6SM OVC015
     FM220100 00000KT P6SM BKN030
     FM220400 VRB03KT P6SM SCT070=



000
FTUS41 KLWX 211140
TAFMTN
TAF
KMTN 211140Z 2112/2212 VRB04KT P6SM -RA OVC040
     FM220400 30006KT P6SM SCT080=



000
FTUS41 KLWX 211140
TAFMRB
TAF
KMRB 211140Z 2112/2212 05005KT P6SM -RA OVC040
     FM211700 10004KT P6SM OVC030
     FM211900 10004KT P6SM BKN020
     FM220000 VRB03KT P6SM BKN025
     FM220200 VRB03KT P6SM BKN040
     FM220400 30004KT P6SM SCT120=



000
FTUS41 KLWX 211140
TAFBWI
TAF
KBWI 211140Z 2112/2218 10007KT P6SM -RA OVC050
     FM211900 05005KT 6SM -RA SCT015 BKN030
     FM220200 VRB04KT P6SM SCT040 BKN080
     FM220800 29009KT P6SM FEW250=



    US Dept of Commerce
    National Oceanic and Atmospheric Administration
    National Weather Service
    1325 East West Highway
    Silver Spring, MD 20910
    Page Author: NWS Internet Services Team
Disclaimer
Information Quality
Credits
Glossary
Privacy Policy
Freedom of Information Act (FOIA)
About Us
Career Opportunities